sensor_id;sensor_type;location;lat;lon;timestamp;pressure;altitude;pressure_sealevel;temperature;humidity
16806;BME280;8520;50.102;20.010;2023-02-03T00:00:42;98737.16;;;2.68;81.30
16806;BME280;8520;50.102;20.010;2023-02-03T00:03:10;98739.63;;;2.85;80.58
16806;BME280;8520;50.102;20.010;2023-02-03T00:05:39;98741.13;;;2.90;79.93
16806;BME280;8520;50.102;20.010;2023-02-03T00:08:08;98742.78;;;2.84;79.51
16806;BME280;8520;50.102;20.010;2023-02-03T00:10:38;98735.19;;;2.68;79.64
16806;BME280;8520;50.102;20.010;2023-02-03T00:13:07;98742.69;;;2.61;79.46
16806;BME280;8520;50.102;20.010;2023-02-03T00:15:35;98737.94;;;2.34;79.43
16806;BME280;8520;50.102;20.010;2023-02-03T00:18:05;98746.84;;;2.69;77.92
16806;BME280;8520;50.102;20.010;2023-02-03T00:20:33;98753.19;;;2.59;78.22
16806;BME280;8520;50.102;20.010;2023-02-03T00:23:05;98749.22;;;2.33;78.39
16806;BME280;8520;50.102;20.010;2023-02-03T00:25:33;98751.44;;;2.75;77.37
16806;BME280;8520;50.102;20.010;2023-02-03T00:28:02;98772.75;;;2.80;76.91
16806;BME280;8520;50.102;20.010;2023-02-03T00:30:32;98766.53;;;2.46;77.72
16806;BME280;8520;50.102;20.010;2023-02-03T00:33:00;98773.53;;;2.47;77.69
16806;BME280;8520;50.102;20.010;2023-02-03T00:35:30;98763.31;;;2.24;78.11
16806;BME280;8520;50.102;20.010;2023-02-03T00:37:58;98767.09;;;2.34;78.57
16806;BME280;8520;50.102;20.010;2023-02-03T00:40:26;98780.34;;;2.28;78.13
16806;BME280;8520;50.102;20.010;2023-02-03T00:42:55;98798.84;;;2.06;78.09
16806;BME280;8520;50.102;20.010;2023-02-03T00:45:25;98800.31;;;2.14;77.73
16806;BME280;8520;50.102;20.010;2023-02-03T00:47:53;98783.00;;;2.69;76.71
16806;BME280;8520;50.102;20.010;2023-02-03T00:50:21;98802.38;;;2.03;77.71
16806;BME280;8520;50.102;20.010;2023-02-03T00:52:50;98795.41;;;1.54;77.51
16806;BME280;8520;50.102;20.010;2023-02-03T00:55:18;98798.94;;;1.95;76.04
16806;BME280;8520;50.102;20.010;2023-02-03T00:57:46;98778.47;;;1.84;76.21
16806;BME280;8520;50.102;20.010;2023-02-03T01:00:15;98782.78;;;1.29;75.47
16806;BME280;8520;50.102;20.010;2023-02-03T01:02:44;98787.69;;;1.49;74.99
16806;BME280;8520;50.102;20.010;2023-02-03T01:05:12;98792.13;;;1.28;74.22
16806;BME280;8520;50.102;20.010;2023-02-03T01:07:40;98783.81;;;1.46;73.45
16806;BME280;8520;50.102;20.010;2023-02-03T01:10:12;98805.78;;;1.66;73.80
16806;BME280;8520;50.102;20.010;2023-02-03T01:12:40;98789.81;;;1.75;73.31
16806;BME280;8520;50.102;20.010;2023-02-03T01:15:09;98791.00;;;1.70;71.74
16806;BME280;8520;50.102;20.010;2023-02-03T01:17:37;98789.09;;;1.64;71.32
16806;BME280;8520;50.102;20.010;2023-02-03T01:20:06;98795.56;;;1.84;71.25
16806;BME280;8520;50.102;20.010;2023-02-03T01:22:34;98797.91;;;1.79;70.46
16806;BME280;8520;50.102;20.010;2023-02-03T01:25:02;98798.94;;;2.33;69.77
16806;BME280;8520;50.102;20.010;2023-02-03T01:27:32;98795.81;;;2.38;68.79
16806;BME280;8520;50.102;20.010;2023-02-03T01:30:00;98787.66;;;2.99;68.36
16806;BME280;8520;50.102;20.010;2023-02-03T01:32:28;98798.53;;;2.69;68.90
16806;BME280;8520;50.102;20.010;2023-02-03T01:34:56;98784.00;;;3.09;68.58
16806;BME280;8520;50.102;20.010;2023-02-03T01:37:24;98801.63;;;3.01;69.02
16806;BME280;8520;50.102;20.010;2023-02-03T01:39:53;98791.22;;;3.23;68.63
16806;BME280;8520;50.102;20.010;2023-02-03T01:42:21;98792.22;;;3.06;68.99
16806;BME280;8520;50.102;20.010;2023-02-03T01:44:50;98796.44;;;2.49;70.84
16806;BME280;8520;50.102;20.010;2023-02-03T01:47:26;98795.78;;;3.03;70.79
16806;BME280;8520;50.102;20.010;2023-02-03T01:49:59;98786.06;;;2.37;75.63
16806;BME280;8520;50.102;20.010;2023-02-03T01:52:30;98788.06;;;2.33;78.58
16806;BME280;8520;50.102;20.010;2023-02-03T01:55:04;98785.28;;;2.74;77.92
16806;BME280;8520;50.102;20.010;2023-02-03T01:57:39;98795.03;;;1.96;81.27
16806;BME280;8520;50.102;20.010;2023-02-03T02:00:12;98797.09;;;1.82;82.25
16806;BME280;8520;50.102;20.010;2023-02-03T02:02:42;98798.13;;;1.98;82.17
16806;BME280;8520;50.102;20.010;2023-02-03T02:05:16;98786.16;;;1.92;82.08
16806;BME280;8520;50.102;20.010;2023-02-03T02:07:48;98779.28;;;2.18;80.93
16806;BME280;8520;50.102;20.010;2023-02-03T02:10:16;98772.84;;;2.05;81.37
16806;BME280;8520;50.102;20.010;2023-02-03T02:12:46;98772.88;;;2.02;80.81
16806;BME280;8520;50.102;20.010;2023-02-03T02:15:16;98778.75;;;1.96;79.95
16806;BME280;8520;50.102;20.010;2023-02-03T02:18:00;98770.41;;;2.14;79.75
16806;BME280;8520;50.102;20.010;2023-02-03T02:20:46;98769.47;;;1.90;79.35
16806;BME280;8520;50.102;20.010;2023-02-03T02:23:35;98767.22;;;2.19;77.78
16806;BME280;8520;50.102;20.010;2023-02-03T02:26:32;98762.94;;;1.84;78.48
16806;BME280;8520;50.102;20.010;2023-02-03T02:29:18;98760.94;;;2.30;76.79
16806;BME280;8520;50.102;20.010;2023-02-03T02:32:04;98758.69;;;2.21;76.89
16806;BME280;8520;50.102;20.010;2023-02-03T02:34:43;98764.34;;;1.99;77.48
16806;BME280;8520;50.102;20.010;2023-02-03T02:37:27;98756.47;;;2.12;76.99
16806;BME280;8520;50.102;20.010;2023-02-03T02:40:08;98768.69;;;2.27;76.81
16806;BME280;8520;50.102;20.010;2023-02-03T02:42:45;98760.94;;;2.60;76.56
16806;BME280;8520;50.102;20.010;2023-02-03T02:45:20;98770.06;;;2.09;77.99
16806;BME280;8520;50.102;20.010;2023-02-03T02:47:58;98768.84;;;2.51;77.66
16806;BME280;8520;50.102;20.010;2023-02-03T02:50:33;98770.78;;;2.50;77.79
16806;BME280;8520;50.102;20.010;2023-02-03T02:53:04;98783.53;;;1.82;79.16
16806;BME280;8520;50.102;20.010;2023-02-03T02:55:37;98782.03;;;1.77;80.08
16806;BME280;8520;50.102;20.010;2023-02-03T02:58:10;98781.81;;;1.57;81.48
16806;BME280;8520;50.102;20.010;2023-02-03T03:00:39;98778.25;;;1.64;81.37
16806;BME280;8520;50.102;20.010;2023-02-03T03:03:17;98772.88;;;1.57;81.02
16806;BME280;8520;50.102;20.010;2023-02-03T03:05:50;98758.94;;;0.99;82.74
16806;BME280;8520;50.102;20.010;2023-02-03T03:08:28;98759.22;;;1.16;81.88
16806;BME280;8520;50.102;20.010;2023-02-03T03:11:00;98740.91;;;1.30;82.49
16806;BME280;8520;50.102;20.010;2023-02-03T03:13:33;98748.59;;;0.73;82.74
16806;BME280;8520;50.102;20.010;2023-02-03T03:16:04;98727.56;;;0.91;83.22
16806;BME280;8520;50.102;20.010;2023-02-03T03:18:38;98723.28;;;1.49;81.47
16806;BME280;8520;50.102;20.010;2023-02-03T03:21:12;98716.25;;;1.07;81.72
16806;BME280;8520;50.102;20.010;2023-02-03T03:23:46;98714.00;;;0.95;82.50
16806;BME280;8520;50.102;20.010;2023-02-03T03:26:20;98711.94;;;1.13;82.00
16806;BME280;8520;50.102;20.010;2023-02-03T03:28:51;98720.28;;;0.81;82.61
16806;BME280;8520;50.102;20.010;2023-02-03T03:31:22;98728.38;;;0.88;82.59
16806;BME280;8520;50.102;20.010;2023-02-03T03:33:52;98745.41;;;0.96;82.05
16806;BME280;8520;50.102;20.010;2023-02-03T03:36:25;98754.34;;;1.48;81.57
16806;BME280;8520;50.102;20.010;2023-02-03T03:39:00;98752.66;;;1.65;80.10
16806;BME280;8520;50.102;20.010;2023-02-03T03:41:37;98751.44;;;1.69;79.92
16806;BME280;8520;50.102;20.010;2023-02-03T03:44:10;98750.84;;;1.92;79.09
16806;BME280;8520;50.102;20.010;2023-02-03T03:46:42;98748.78;;;1.62;78.66
16806;BME280;8520;50.102;20.010;2023-02-03T03:49:14;98745.13;;;2.17;77.88
16806;BME280;8520;50.102;20.010;2023-02-03T03:51:45;98760.53;;;1.45;79.63
16806;BME280;8520;50.102;20.010;2023-02-03T03:54:18;98758.38;;;1.74;79.32
16806;BME280;8520;50.102;20.010;2023-02-03T03:56:53;98747.06;;;1.34;81.14
16806;BME280;8520;50.102;20.010;2023-02-03T03:59:23;98741.38;;;1.14;81.61
16806;BME280;8520;50.102;20.010;2023-02-03T04:01:53;98728.38;;;1.43;80.68
16806;BME280;8520;50.102;20.010;2023-02-03T04:04:24;98721.34;;;1.50;80.30
16806;BME280;8520;50.102;20.010;2023-02-03T04:06:53;98708.38;;;2.06;78.38
16806;BME280;8520;50.102;20.010;2023-02-03T04:09:22;98715.09;;;1.53;79.75
16806;BME280;8520;50.102;20.010;2023-02-03T04:11:51;98715.41;;;1.62;79.59
16806;BME280;8520;50.102;20.010;2023-02-03T04:14:28;98713.69;;;1.37;79.42
16806;BME280;8520;50.102;20.010;2023-02-03T04:16:57;98702.44;;;1.35;79.52
16806;BME280;8520;50.102;20.010;2023-02-03T04:19:27;98707.81;;;1.42;79.11
16806;BME280;8520;50.102;20.010;2023-02-03T04:21:55;98704.72;;;0.92;79.26
16806;BME280;8520;50.102;20.010;2023-02-03T04:24:23;98705.88;;;1.47;79.28
16806;BME280;8520;50.102;20.010;2023-02-03T04:26:52;98705.47;;;1.45;79.58
16806;BME280;8520;50.102;20.010;2023-02-03T04:29:20;98705.78;;;1.05;78.81
16806;BME280;8520;50.102;20.010;2023-02-03T04:31:48;98707.34;;;1.51;78.47
16806;BME280;8520;50.102;20.010;2023-02-03T04:34:16;98703.81;;;1.54;78.48
16806;BME280;8520;50.102;20.010;2023-02-03T04:36:45;98708.22;;;1.41;78.62
16806;BME280;8520;50.102;20.010;2023-02-03T04:39:13;98702.59;;;2.00;77.32
16806;BME280;8520;50.102;20.010;2023-02-03T04:41:42;98698.31;;;2.03;76.35
16806;BME280;8520;50.102;20.010;2023-02-03T04:44:10;98698.91;;;2.17;75.83
16806;BME280;8520;50.102;20.010;2023-02-03T04:46:38;98712.84;;;1.44;77.19
16806;BME280;8520;50.102;20.010;2023-02-03T04:49:06;98709.25;;;1.54;76.57
16806;BME280;8520;50.102;20.010;2023-02-03T04:51:37;98697.06;;;2.11;76.23
16806;BME280;8520;50.102;20.010;2023-02-03T04:54:07;98694.34;;;2.41;74.89
16806;BME280;8520;50.102;20.010;2023-02-03T04:56:35;98692.16;;;2.60;74.25
16806;BME280;8520;50.102;20.010;2023-02-03T04:59:03;98686.06;;;2.79;73.63
16806;BME280;8520;50.102;20.010;2023-02-03T05:01:31;98682.22;;;2.49;74.33
16806;BME280;8520;50.102;20.010;2023-02-03T05:03:59;98680.94;;;2.58;74.00
16806;BME280;8520;50.102;20.010;2023-02-03T05:06:28;98683.69;;;2.23;75.16
16806;BME280;8520;50.102;20.010;2023-02-03T05:08:58;98680.06;;;1.65;76.02
16806;BME280;8520;50.102;20.010;2023-02-03T05:11:27;98682.44;;;1.97;75.88
16806;BME280;8520;50.102;20.010;2023-02-03T05:13:56;98679.94;;;2.14;75.41
16806;BME280;8520;50.102;20.010;2023-02-03T05:16:24;98676.09;;;2.08;75.30
16806;BME280;8520;50.102;20.010;2023-02-03T05:18:52;98683.09;;;2.09;75.10
16806;BME280;8520;50.102;20.010;2023-02-03T05:21:20;98670.03;;;2.27;74.50
16806;BME280;8520;50.102;20.010;2023-02-03T05:23:48;98679.84;;;2.21;74.46
16806;BME280;8520;50.102;20.010;2023-02-03T05:26:17;98669.59;;;2.32;74.17
16806;BME280;8520;50.102;20.010;2023-02-03T05:28:46;98668.84;;;2.32;74.23
16806;BME280;8520;50.102;20.010;2023-02-03T05:31:16;98660.88;;;2.44;73.67
16806;BME280;8520;50.102;20.010;2023-02-03T05:33:44;98661.84;;;2.61;73.09
16806;BME280;8520;50.102;20.010;2023-02-03T05:36:12;98657.97;;;1.97;74.32
16806;BME280;8520;50.102;20.010;2023-02-03T05:38:40;98655.97;;;2.05;74.84
16806;BME280;8520;50.102;20.010;2023-02-03T05:41:09;98638.53;;;2.03;74.21
16806;BME280;8520;50.102;20.010;2023-02-03T05:43:56;98641.28;;;2.30;74.18
16806;BME280;8520;50.102;20.010;2023-02-03T05:46:24;98647.34;;;2.10;74.19
16806;BME280;8520;50.102;20.010;2023-02-03T05:48:52;98646.97;;;2.08;74.85
16806;BME280;8520;50.102;20.010;2023-02-03T05:51:20;98656.16;;;1.50;75.33
16806;BME280;8520;50.102;20.010;2023-02-03T05:53:48;98641.53;;;1.78;75.75
16806;BME280;8520;50.102;20.010;2023-02-03T05:56:16;98643.28;;;1.91;75.13
16806;BME280;8520;50.102;20.010;2023-02-03T05:58:44;98636.09;;;2.12;74.25
16806;BME280;8520;50.102;20.010;2023-02-03T06:01:14;98634.22;;;2.05;74.94
16806;BME280;8520;50.102;20.010;2023-02-03T06:03:42;98630.38;;;2.03;75.31
16806;BME280;8520;50.102;20.010;2023-02-03T06:06:12;98638.75;;;1.81;75.44
16806;BME280;8520;50.102;20.010;2023-02-03T06:08:41;98626.75;;;1.79;75.75
16806;BME280;8520;50.102;20.010;2023-02-03T06:11:10;98620.63;;;2.05;75.53
16806;BME280;8520;50.102;20.010;2023-02-03T06:13:38;98620.28;;;1.99;75.21
16806;BME280;8520;50.102;20.010;2023-02-03T06:16:07;98622.09;;;1.79;75.57
16806;BME280;8520;50.102;20.010;2023-02-03T06:18:36;98610.50;;;1.75;76.68
16806;BME280;8520;50.102;20.010;2023-02-03T06:21:04;98595.16;;;2.22;75.60
16806;BME280;8520;50.102;20.010;2023-02-03T06:23:33;98586.06;;;2.06;75.87
16806;BME280;8520;50.102;20.010;2023-02-03T06:26:01;98587.78;;;2.23;75.20
16806;BME280;8520;50.102;20.010;2023-02-03T06:28:29;98587.81;;;2.19;75.54
16806;BME280;8520;50.102;20.010;2023-02-03T06:30:59;98580.97;;;2.38;74.53
16806;BME280;8520;50.102;20.010;2023-02-03T06:33:28;98586.19;;;1.95;75.86
16806;BME280;8520;50.102;20.010;2023-02-03T06:35:57;98572.38;;;2.13;75.85
16806;BME280;8520;50.102;20.010;2023-02-03T06:38:25;98567.91;;;2.26;75.16
16806;BME280;8520;50.102;20.010;2023-02-03T06:40:53;98578.19;;;1.50;76.29
16806;BME280;8520;50.102;20.010;2023-02-03T06:43:21;98572.41;;;2.09;76.07
16806;BME280;8520;50.102;20.010;2023-02-03T06:45:49;98580.41;;;1.59;77.26
16806;BME280;8520;50.102;20.010;2023-02-03T06:48:18;98577.41;;;1.84;77.00
16806;BME280;8520;50.102;20.010;2023-02-03T06:50:46;98567.31;;;1.84;76.91
16806;BME280;8520;50.102;20.010;2023-02-03T06:53:16;98556.84;;;2.13;76.11
16806;BME280;8520;50.102;20.010;2023-02-03T06:55:44;98554.72;;;1.97;75.46
16806;BME280;8520;50.102;20.010;2023-02-03T06:58:13;98560.88;;;1.37;77.22
16806;BME280;8520;50.102;20.010;2023-02-03T07:00:42;98557.25;;;1.81;76.06
16806;BME280;8520;50.102;20.010;2023-02-03T07:03:10;98553.84;;;2.04;75.65
16806;BME280;8520;50.102;20.010;2023-02-03T07:05:38;98559.56;;;1.83;75.94
16806;BME280;8520;50.102;20.010;2023-02-03T07:08:06;98553.59;;;1.95;75.08
16806;BME280;8520;50.102;20.010;2023-02-03T07:10:36;98549.44;;;1.87;75.82
16806;BME280;8520;50.102;20.010;2023-02-03T07:13:05;98547.41;;;2.21;74.71
16806;BME280;8520;50.102;20.010;2023-02-03T07:15:33;98545.63;;;2.11;74.58
16806;BME280;8520;50.102;20.010;2023-02-03T07:18:01;98546.81;;;2.07;74.36
16806;BME280;8520;50.102;20.010;2023-02-03T07:20:29;98534.88;;;2.27;74.19
16806;BME280;8520;50.102;20.010;2023-02-03T07:22:58;98532.38;;;2.40;73.71
16806;BME280;8520;50.102;20.010;2023-02-03T07:25:26;98526.25;;;2.06;74.24
16806;BME280;8520;50.102;20.010;2023-02-03T07:27:56;98532.03;;;2.38;73.32
16806;BME280;8520;50.102;20.010;2023-02-03T07:30:24;98522.41;;;2.57;72.61
16806;BME280;8520;50.102;20.010;2023-02-03T07:32:53;98525.59;;;2.75;71.75
16806;BME280;8520;50.102;20.010;2023-02-03T07:35:21;98522.41;;;3.00;71.24
16806;BME280;8520;50.102;20.010;2023-02-03T07:37:49;98523.22;;;2.77;70.50
16806;BME280;8520;50.102;20.010;2023-02-03T07:40:18;98526.44;;;2.92;70.66
16806;BME280;8520;50.102;20.010;2023-02-03T07:42:47;98517.84;;;3.17;69.76
16806;BME280;8520;50.102;20.010;2023-02-03T07:45:17;98507.00;;;2.94;69.37
16806;BME280;8520;50.102;20.010;2023-02-03T07:47:47;98488.31;;;2.96;69.43
16806;BME280;8520;50.102;20.010;2023-02-03T07:50:16;98490.13;;;3.02;68.73
16806;BME280;8520;50.102;20.010;2023-02-03T07:52:44;98491.41;;;2.74;69.27
16806;BME280;8520;50.102;20.010;2023-02-03T07:55:12;98484.59;;;2.86;68.98
16806;BME280;8520;50.102;20.010;2023-02-03T07:57:41;98487.88;;;2.74;69.25
16806;BME280;8520;50.102;20.010;2023-02-03T08:00:11;98477.97;;;3.07;68.74
16806;BME280;8520;50.102;20.010;2023-02-03T08:02:41;98470.22;;;2.85;68.85
16806;BME280;8520;50.102;20.010;2023-02-03T08:05:10;98472.22;;;3.01;68.38
16806;BME280;8520;50.102;20.010;2023-02-03T08:07:39;98459.13;;;3.36;67.49
16806;BME280;8520;50.102;20.010;2023-02-03T08:10:08;98454.56;;;2.70;68.31
16806;BME280;8520;50.102;20.010;2023-02-03T08:12:37;98456.31;;;2.80;67.46
16806;BME280;8520;50.102;20.010;2023-02-03T08:15:06;98449.56;;;2.88;67.55
16806;BME280;8520;50.102;20.010;2023-02-03T08:17:34;98437.16;;;2.64;67.21
16806;BME280;8520;50.102;20.010;2023-02-03T08:20:08;98444.19;;;3.04;67.01
16806;BME280;8520;50.102;20.010;2023-02-03T08:22:36;98431.06;;;3.39;66.11
16806;BME280;8520;50.102;20.010;2023-02-03T08:25:06;98429.03;;;3.43;65.74
16806;BME280;8520;50.102;20.010;2023-02-03T08:27:34;98425.91;;;3.05;66.20
16806;BME280;8520;50.102;20.010;2023-02-03T08:30:03;98420.53;;;3.21;66.06
16806;BME280;8520;50.102;20.010;2023-02-03T08:32:32;98424.72;;;3.06;64.83
16806;BME280;8520;50.102;20.010;2023-02-03T08:35:01;98417.25;;;3.30;64.90
16806;BME280;8520;50.102;20.010;2023-02-03T08:37:31;98414.50;;;3.50;64.23
16806;BME280;8520;50.102;20.010;2023-02-03T08:40:00;98402.69;;;3.36;64.48
16806;BME280;8520;50.102;20.010;2023-02-03T08:42:28;98402.84;;;3.09;64.60
16806;BME280;8520;50.102;20.010;2023-02-03T08:44:56;98392.16;;;3.19;64.09
16806;BME280;8520;50.102;20.010;2023-02-03T08:47:25;98385.78;;;3.45;63.73
16806;BME280;8520;50.102;20.010;2023-02-03T08:49:53;98379.28;;;3.75;63.21
16806;BME280;8520;50.102;20.010;2023-02-03T08:52:21;98382.84;;;3.72;63.57
16806;BME280;8520;50.102;20.010;2023-02-03T08:54:50;98373.19;;;3.51;63.85
16806;BME280;8520;50.102;20.010;2023-02-03T08:57:19;98378.66;;;3.84;62.84
16806;BME280;8520;50.102;20.010;2023-02-03T08:59:47;98367.66;;;3.38;63.36
16806;BME280;8520;50.102;20.010;2023-02-03T09:02:18;98360.78;;;3.50;62.04
16806;BME280;8520;50.102;20.010;2023-02-03T09:04:46;98362.31;;;3.51;62.38
16806;BME280;8520;50.102;20.010;2023-02-03T09:07:15;98360.88;;;3.63;61.98
16806;BME280;8520;50.102;20.010;2023-02-03T09:09:43;98360.06;;;3.30;61.85
16806;BME280;8520;50.102;20.010;2023-02-03T09:12:13;98351.69;;;3.21;62.36
16806;BME280;8520;50.102;20.010;2023-02-03T09:14:41;98348.59;;;3.55;61.35
16806;BME280;8520;50.102;20.010;2023-02-03T09:17:10;98352.66;;;3.10;61.64
16806;BME280;8520;50.102;20.010;2023-02-03T09:19:38;98344.88;;;3.81;59.79
16806;BME280;8520;50.102;20.010;2023-02-03T09:22:06;98341.97;;;3.20;60.68
16806;BME280;8520;50.102;20.010;2023-02-03T09:24:35;98346.41;;;3.13;61.68
16806;BME280;8520;50.102;20.010;2023-02-03T09:27:03;98340.53;;;3.15;61.55
16806;BME280;8520;50.102;20.010;2023-02-03T09:29:32;98340.41;;;3.38;61.72
16806;BME280;8520;50.102;20.010;2023-02-03T09:32:00;98345.50;;;3.20;61.61
16806;BME280;8520;50.102;20.010;2023-02-03T09:34:33;98343.47;;;3.40;61.22
16806;BME280;8520;50.102;20.010;2023-02-03T09:37:01;98343.84;;;3.59;60.85
16806;BME280;8520;50.102;20.010;2023-02-03T09:39:30;98338.03;;;3.40;60.11
16806;BME280;8520;50.102;20.010;2023-02-03T09:42:18;98327.69;;;3.84;59.02
16806;BME280;8520;50.102;20.010;2023-02-03T09:45:04;98325.47;;;4.41;57.93
16806;BME280;8520;50.102;20.010;2023-02-03T09:47:39;98314.69;;;4.21;58.23
16806;BME280;8520;50.102;20.010;2023-02-03T09:50:12;98313.41;;;3.93;58.82
16806;BME280;8520;50.102;20.010;2023-02-03T09:52:41;98316.66;;;4.49;58.33
16806;BME280;8520;50.102;20.010;2023-02-03T09:55:23;98309.47;;;4.26;58.35
16806;BME280;8520;50.102;20.010;2023-02-03T09:57:57;98294.75;;;4.08;58.71
16806;BME280;8520;50.102;20.010;2023-02-03T10:00:31;98302.34;;;3.84;58.73
16806;BME280;8520;50.102;20.010;2023-02-03T10:03:06;98293.88;;;3.49;60.02
16806;BME280;8520;50.102;20.010;2023-02-03T10:05:57;98295.38;;;3.34;61.47
16806;BME280;8520;50.102;20.010;2023-02-03T10:08:40;98286.88;;;4.26;60.67
16806;BME280;8520;50.102;20.010;2023-02-03T10:11:18;98275.19;;;3.64;63.83
16806;BME280;8520;50.102;20.010;2023-02-03T10:13:57;98273.16;;;2.83;67.57
16806;BME280;8520;50.102;20.010;2023-02-03T10:16:47;98259.38;;;3.26;67.47
16806;BME280;8520;50.102;20.010;2023-02-03T10:19:22;98257.00;;;3.45;67.53
16806;BME280;8520;50.102;20.010;2023-02-03T10:21:56;98241.13;;;4.17;65.74
16806;BME280;8520;50.102;20.010;2023-02-03T10:24:29;98224.72;;;4.34;65.20
16806;BME280;8520;50.102;20.010;2023-02-03T10:27:01;98211.78;;;3.63;67.17
16806;BME280;8520;50.102;20.010;2023-02-03T10:29:34;98208.38;;;3.59;67.14
16806;BME280;8520;50.102;20.010;2023-02-03T10:32:07;98199.13;;;3.24;67.56
16806;BME280;8520;50.102;20.010;2023-02-03T10:34:36;98196.31;;;3.44;68.34
16806;BME280;8520;50.102;20.010;2023-02-03T10:37:10;98182.66;;;3.77;67.56
16806;BME280;8520;50.102;20.010;2023-02-03T10:39:45;98167.06;;;4.19;67.34
16806;BME280;8520;50.102;20.010;2023-02-03T10:42:15;98164.38;;;4.32;66.83
16806;BME280;8520;50.102;20.010;2023-02-03T10:44:47;98147.59;;;4.46;66.53
16806;BME280;8520;50.102;20.010;2023-02-03T10:47:21;98143.00;;;3.88;68.13
16806;BME280;8520;50.102;20.010;2023-02-03T10:49:52;98132.50;;;4.28;67.74
16806;BME280;8520;50.102;20.010;2023-02-03T10:52:29;98131.09;;;4.37;68.35
16806;BME280;8520;50.102;20.010;2023-02-03T10:54:58;98109.94;;;4.66;67.85
16806;BME280;8520;50.102;20.010;2023-02-03T10:57:27;98094.44;;;4.38;69.40
16806;BME280;8520;50.102;20.010;2023-02-03T11:00:19;98100.66;;;4.51;70.00
16806;BME280;8520;50.102;20.010;2023-02-03T11:02:55;98086.91;;;4.16;71.35
16806;BME280;8520;50.102;20.010;2023-02-03T11:05:24;98082.28;;;4.00;73.21
16806;BME280;8520;50.102;20.010;2023-02-03T11:07:53;98074.56;;;4.37;73.46
16806;BME280;8520;50.102;20.010;2023-02-03T11:10:30;98065.06;;;4.80;72.70
16806;BME280;8520;50.102;20.010;2023-02-03T11:13:11;98033.78;;;4.59;72.00
16806;BME280;8520;50.102;20.010;2023-02-03T11:15:48;98039.34;;;4.05;73.97
16806;BME280;8520;50.102;20.010;2023-02-03T11:18:42;98039.22;;;4.08;74.85
16806;BME280;8520;50.102;20.010;2023-02-03T11:21:15;98028.78;;;3.52;76.78
16806;BME280;8520;50.102;20.010;2023-02-03T11:23:47;98019.69;;;3.84;77.10
16806;BME280;8520;50.102;20.010;2023-02-03T11:26:18;98011.22;;;3.40;78.42
16806;BME280;8520;50.102;20.010;2023-02-03T11:28:49;97994.13;;;3.53;78.68
16806;BME280;8520;50.102;20.010;2023-02-03T11:31:23;97984.91;;;3.88;78.36
16806;BME280;8520;50.102;20.010;2023-02-03T11:34:00;97978.00;;;3.17;80.16
16806;BME280;8520;50.102;20.010;2023-02-03T11:36:31;97973.22;;;3.50;79.90
16806;BME280;8520;50.102;20.010;2023-02-03T11:39:32;97962.56;;;3.68;79.91
16806;BME280;8520;50.102;20.010;2023-02-03T11:42:01;97938.81;;;3.94;79.72
16806;BME280;8520;50.102;20.010;2023-02-03T11:44:29;97930.06;;;3.61;79.84
16806;BME280;8520;50.102;20.010;2023-02-03T11:47:01;97931.41;;;3.94;78.79
16806;BME280;8520;50.102;20.010;2023-02-03T11:50:06;97920.41;;;3.18;80.89
16806;BME280;8520;50.102;20.010;2023-02-03T11:53:00;97905.09;;;3.62;79.35
16806;BME280;8520;50.102;20.010;2023-02-03T11:55:39;97896.38;;;3.29;80.35
16806;BME280;8520;50.102;20.010;2023-02-03T11:58:37;97880.84;;;3.01;81.99
16806;BME280;8520;50.102;20.010;2023-02-03T12:01:14;97872.44;;;3.50;81.62
16806;BME280;8520;50.102;20.010;2023-02-03T12:04:00;97850.97;;;3.39;80.79
16806;BME280;8520;50.102;20.010;2023-02-03T12:06:53;97850.72;;;3.71;80.16
16806;BME280;8520;50.102;20.010;2023-02-03T12:09:36;97841.66;;;3.87;79.70
16806;BME280;8520;50.102;20.010;2023-02-03T12:12:23;97830.75;;;3.75;80.07
16806;BME280;8520;50.102;20.010;2023-02-03T12:15:03;97833.63;;;3.58;80.88
16806;BME280;8520;50.102;20.010;2023-02-03T12:17:53;97813.44;;;3.81;80.18
16806;BME280;8520;50.102;20.010;2023-02-03T12:20:36;97805.47;;;3.87;80.02
16806;BME280;8520;50.102;20.010;2023-02-03T12:23:20;97790.78;;;3.71;80.77
16806;BME280;8520;50.102;20.010;2023-02-03T12:26:10;97775.91;;;3.98;80.24
16806;BME280;8520;50.102;20.010;2023-02-03T12:28:46;97776.44;;;3.93;80.17
16806;BME280;8520;50.102;20.010;2023-02-03T12:31:22;97768.75;;;3.79;80.75
16806;BME280;8520;50.102;20.010;2023-02-03T12:34:02;97754.16;;;3.72;81.04
16806;BME280;8520;50.102;20.010;2023-02-03T12:36:38;97750.22;;;3.86;81.42
16806;BME280;8520;50.102;20.010;2023-02-03T12:39:16;97744.44;;;3.84;81.18
16806;BME280;8520;50.102;20.010;2023-02-03T12:41:49;97739.97;;;4.12;80.50
16806;BME280;8520;50.102;20.010;2023-02-03T12:44:24;97724.59;;;3.49;82.54
16806;BME280;8520;50.102;20.010;2023-02-03T12:47:00;97719.44;;;3.51;83.41
16806;BME280;8520;50.102;20.010;2023-02-03T12:49:37;97712.00;;;3.99;82.10
16806;BME280;8520;50.102;20.010;2023-02-03T12:52:13;97708.13;;;3.87;81.59
16806;BME280;8520;50.102;20.010;2023-02-03T12:54:48;97697.00;;;3.82;82.07
16806;BME280;8520;50.102;20.010;2023-02-03T12:57:25;97684.09;;;4.17;81.25
16806;BME280;8520;50.102;20.010;2023-02-03T13:00:03;97674.56;;;4.43;80.76
16806;BME280;8520;50.102;20.010;2023-02-03T13:02:40;97668.44;;;4.08;80.67
16806;BME280;8520;50.102;20.010;2023-02-03T13:05:19;97665.06;;;4.26;81.15
16806;BME280;8520;50.102;20.010;2023-02-03T13:07:54;97654.81;;;4.30;81.20
16806;BME280;8520;50.102;20.010;2023-02-03T13:10:31;97643.91;;;4.61;80.37
16806;BME280;8520;50.102;20.010;2023-02-03T13:13:03;97623.16;;;4.11;81.07
16806;BME280;8520;50.102;20.010;2023-02-03T13:15:38;97632.91;;;4.43;81.29
16806;BME280;8520;50.102;20.010;2023-02-03T13:18:14;97613.66;;;4.46;81.01
16806;BME280;8520;50.102;20.010;2023-02-03T13:20:46;97615.63;;;3.93;82.87
16806;BME280;8520;50.102;20.010;2023-02-03T13:23:14;97608.28;;;3.81;82.69
16806;BME280;8520;50.102;20.010;2023-02-03T13:25:55;97597.72;;;4.05;83.11
16806;BME280;8520;50.102;20.010;2023-02-03T13:28:40;97593.72;;;4.27;82.45
16806;BME280;8520;50.102;20.010;2023-02-03T13:31:21;97585.31;;;4.44;81.67
16806;BME280;8520;50.102;20.010;2023-02-03T13:37:10;97565.16;;;4.41;81.99
16806;BME280;8520;50.102;20.010;2023-02-03T13:39:51;97557.78;;;4.20;82.96